createdAt,value
2019-01-31T00:01:34.310Z,5.27
2019-01-31T00:04:21.162Z,6.43
2019-01-31T00:07:44.781Z,6.70
2019-01-31T00:13:43.244Z,7.07
2019-01-31T00:23:24.734Z,8.93
2019-01-31T00:27:01.619Z,8.43
2019-01-31T00:30:20.088Z,8.97
2019-01-31T00:33:14.344Z,8.10
2019-01-31T00:36:04.608Z,6.33
2019-01-31T00:38:56.267Z,6.93
2019-01-31T00:41:38.470Z,5.03
2019-01-31T00:44:32.394Z,5.70
2019-01-31T00:47:29.036Z,4.40
2019-01-31T00:50:50.510Z,4.10
2019-01-31T00:57:14.003Z,3.93
2019-01-31T01:00:09.035Z,4.27
2019-01-31T01:03:08.927Z,3.93
2019-01-31T01:05:55.780Z,4.13
2019-01-31T01:08:32.044Z,4.00
2019-01-31T01:11:08.474Z,4.27
2019-01-31T01:13:49.814Z,4.13
2019-01-31T01:16:22.367Z,4.27
2019-01-31T01:19:22.498Z,5.00
2019-01-31T01:22:22.400Z,4.60
2019-01-31T01:25:09.763Z,4.00
2019-01-31T01:27:46.083Z,4.00
2019-01-31T01:30:34.123Z,4.63
2019-01-31T01:33:33.916Z,4.80
2019-01-31T01:36:14.641Z,5.20
2019-01-31T01:39:18.600Z,5.20
2019-01-31T01:41:44.506Z,5.03
2019-01-31T01:44:22.557Z,5.27
2019-01-31T01:46:58.615Z,5.37
2019-01-31T01:49:34.289Z,6.00
2019-01-31T01:52:10.151Z,5.60
2019-01-31T01:54:57.223Z,6.37
2019-01-31T01:57:30.845Z,6.43
2019-01-31T02:00:22.111Z,6.93
2019-01-31T02:02:58.879Z,7.07
2019-01-31T02:05:59.871Z,7.43
2019-01-31T02:09:04.551Z,7.87
2019-01-31T02:11:44.013Z,8.13
2019-01-31T02:14:39.847Z,8.27
2019-01-31T02:17:18.778Z,8.97
2019-01-31T02:20:07.601Z,10.03
2019-01-31T02:22:44.153Z,11.60
2019-01-31T02:25:18.791Z,11.97
2019-01-31T02:28:11.728Z,12.93
2019-01-31T02:30:47.933Z,12.43
2019-01-31T02:33:39.094Z,14.30
2019-01-31T02:36:19.195Z,14.47
2019-01-31T02:39:01.764Z,14.17
2019-01-31T02:41:34.624Z,13.40
2019-01-31T02:44:22.355Z,12.37
2019-01-31T02:47:19.680Z,13.40
2019-01-31T02:50:10.641Z,12.80
2019-01-31T02:53:14.078Z,11.50
2019-01-31T02:56:00.336Z,12.67
2019-01-31T02:58:37.056Z,13.63
2019-01-31T03:01:27.508Z,13.33
2019-01-31T03:04:18.419Z,14.27
2019-01-31T03:07:18.473Z,14.90
2019-01-31T03:10:04.355Z,13.73
2019-01-31T03:12:44.174Z,14.80
2019-01-31T03:15:16.971Z,14.47
2019-01-31T03:18:05.291Z,14.53
2019-01-31T03:21:05.278Z,14.93
2019-01-31T03:23:54.805Z,14.37
2019-01-31T03:26:57.167Z,15.90
2019-01-31T03:29:43.771Z,16.50
2019-01-31T03:32:26.305Z,15.70
2019-01-31T03:35:24.710Z,16.57
2019-01-31T03:38:15.794Z,17.30
2019-01-31T03:41:07.858Z,16.73
2019-01-31T03:43:39.951Z,17.57
2019-01-31T03:46:29.858Z,17.60
2019-01-31T03:49:01.564Z,16.80
2019-01-31T03:51:55.451Z,16.50
2019-01-31T03:54:46.248Z,17.57
2019-01-31T03:57:40.451Z,17.30
2019-01-31T04:00:31.703Z,17.20
2019-01-31T04:03:02.849Z,16.40
2019-01-31T04:05:36.882Z,16.17
2019-01-31T04:08:06.058Z,17.20
2019-01-31T04:10:36.923Z,16.03
2019-01-31T04:13:06.195Z,15.93
2019-01-31T04:15:38.506Z,16.00
2019-01-31T04:18:07.958Z,17.13
2019-01-31T04:20:54.741Z,17.63
2019-01-31T04:23:28.653Z,16.63
2019-01-31T04:25:57.893Z,17.67
2019-01-31T04:28:26.996Z,17.87
2019-01-31T04:30:56.172Z,18.00
2019-01-31T04:33:25.317Z,18.73
2019-01-31T04:36:01.602Z,18.27
2019-01-31T04:38:33.485Z,18.97
2019-01-31T04:41:02.668Z,17.60
2019-01-31T04:43:32.635Z,17.73
2019-01-31T04:46:01.772Z,18.23
2019-01-31T04:48:30.795Z,17.80
2019-01-31T04:50:59.753Z,17.67
2019-01-31T04:53:28.660Z,18.47
2019-01-31T04:55:57.666Z,17.57
2019-01-31T04:58:26.528Z,18.57
2019-01-31T05:00:59.904Z,17.83
2019-01-31T05:03:28.616Z,18.37
2019-01-31T05:05:57.765Z,18.13
2019-01-31T05:08:27.065Z,17.90
2019-01-31T05:11:09.917Z,17.53
2019-01-31T05:16:47.528Z,16.33
2019-01-31T05:19:18.250Z,15.27
2019-01-31T05:21:50.762Z,15.47
2019-01-31T05:24:24.261Z,13.73
2019-01-31T05:26:53.448Z,15.10
2019-01-31T05:29:22.140Z,13.73
2019-01-31T05:31:50.926Z,12.97
2019-01-31T06:12:03.175Z,10.97
2019-01-31T06:14:31.830Z,12.47
2019-01-31T06:17:00.399Z,11.73
2019-01-31T06:19:29.123Z,12.47
2019-01-31T06:21:57.764Z,11.60
2019-01-31T06:24:26.992Z,11.73
2019-01-31T06:26:55.541Z,11.23
2019-01-31T06:30:23.658Z,11.43
2019-01-31T06:33:18.116Z,10.37
2019-01-31T06:36:06.864Z,10.70
2019-01-31T06:38:27.437Z,11.20
2019-01-31T06:41:02.118Z,10.83
2019-01-31T06:46:53.813Z,10.97
2019-01-31T06:49:33.180Z,11.60
2019-01-31T06:53:03.209Z,11.60
2019-01-31T07:15:58.786Z,14.13
2019-01-31T07:21:47.719Z,14.63
2019-01-31T07:37:06.510Z,16.57
2019-01-31T07:39:35.201Z,16.87
2019-01-31T07:42:03.783Z,17.93
2019-01-31T07:44:32.237Z,17.13
2019-01-31T07:47:00.740Z,17.53
2019-01-31T07:49:29.350Z,17.87
2019-01-31T07:51:58.092Z,17.50
2019-01-31T07:54:26.613Z,17.67
2019-01-31T07:56:55.252Z,19.57
2019-01-31T07:59:23.745Z,20.53
2019-01-31T08:01:52.329Z,20.80
2019-01-31T08:04:20.868Z,21.50
2019-01-31T08:06:49.350Z,22.00
2019-01-31T08:09:17.861Z,23.40
2019-01-31T08:11:52.779Z,24.93
2019-01-31T08:14:19.350Z,25.17
2019-01-31T08:16:48.206Z,25.40
2019-01-31T08:19:16.727Z,26.57
2019-01-31T08:21:45.260Z,30.27
2019-01-31T08:24:14.605Z,33.23
2019-01-31T08:26:43.864Z,37.10
2019-01-31T08:29:12.412Z,40.10
2019-01-31T08:31:40.994Z,42.70
2019-01-31T08:34:10.396Z,44.43
2019-01-31T08:36:38.836Z,48.37
2019-01-31T08:39:08.287Z,49.93
2019-01-31T08:41:36.976Z,47.73
2019-01-31T08:44:05.844Z,48.33
2019-01-31T08:46:34.433Z,49.10
2019-01-31T08:49:02.888Z,46.33
2019-01-31T08:51:31.504Z,46.07
2019-01-31T08:53:59.952Z,44.37
2019-01-31T08:56:28.563Z,43.13
2019-01-31T08:58:57.034Z,44.67
2019-01-31T09:01:25.661Z,41.80
2019-01-31T09:03:54.476Z,42.50
2019-01-31T09:06:23.075Z,42.20
2019-01-31T09:08:53.996Z,40.70
2019-01-31T09:11:22.676Z,41.37
2019-01-31T09:13:51.187Z,42.73
2019-01-31T09:16:19.679Z,41.60
2019-01-31T09:18:48.716Z,40.70
2019-01-31T09:21:23.141Z,34.30
2019-01-31T09:24:07.771Z,36.27
2019-01-31T09:26:44.915Z,37.30
2019-01-31T09:29:25.443Z,39.47
2019-01-31T09:32:19.147Z,37.93
2019-01-31T09:34:51.341Z,36.70
2019-01-31T09:37:37.692Z,38.60
2019-01-31T09:40:25.501Z,41.57
2019-01-31T09:43:19.330Z,37.17
2019-01-31T09:46:10.094Z,38.50
2019-01-31T09:48:42.442Z,38.30
2019-01-31T09:51:30.379Z,36.20
2019-01-31T09:54:18.404Z,32.97
2019-01-31T09:57:04.768Z,33.23
2019-01-31T09:59:52.984Z,33.43
2019-01-31T10:02:46.697Z,31.00
2019-01-31T10:05:29.568Z,31.97
2019-01-31T10:08:11.204Z,32.03
2019-01-31T10:10:58.901Z,32.67
2019-01-31T10:13:33.282Z,32.83
2019-01-31T10:16:21.300Z,30.60
2019-01-31T10:19:07.890Z,29.20
2019-01-31T10:21:43.432Z,29.13
2019-01-31T10:24:40.368Z,28.07
2019-01-31T10:27:31.187Z,30.03
2019-01-31T10:30:05.724Z,26.50
2019-01-31T10:32:42.726Z,25.90
2019-01-31T10:35:30.788Z,26.97
2019-01-31T10:38:30.479Z,25.27
2019-01-31T10:41:05.028Z,26.03
2019-01-31T10:43:41.145Z,24.13
2019-01-31T10:46:40.689Z,24.90
2019-01-31T10:49:19.499Z,22.47
2019-01-31T10:51:59.162Z,24.80
2019-01-31T10:54:33.923Z,23.53
2019-01-31T10:57:11.076Z,24.30
2019-01-31T11:00:13.621Z,21.30
2019-01-31T11:03:02.140Z,25.63
2019-01-31T11:05:50.136Z,22.53
2019-01-31T11:08:46.648Z,24.33
2019-01-31T11:11:22.107Z,24.23
2019-01-31T11:14:09.964Z,23.53
2019-01-31T11:16:49.819Z,24.47
2019-01-31T11:19:37.769Z,25.13
2019-01-31T11:22:37.600Z,21.60
2019-01-31T11:25:34.305Z,22.60
2019-01-31T11:28:21.993Z,23.37
2019-01-31T11:30:56.868Z,23.53
2019-01-31T11:33:44.676Z,22.60
2019-01-31T11:36:35.691Z,21.17
2019-01-31T11:39:26.552Z,23.63
2019-01-31T11:42:01.952Z,22.03
2019-01-31T11:44:48.016Z,24.83
2019-01-31T11:47:44.789Z,26.17
2019-01-31T11:50:35.639Z,27.73
2019-01-31T11:53:29.497Z,29.43
2019-01-31T11:56:06.366Z,27.97
2019-01-31T11:58:43.244Z,28.27
2019-01-31T12:01:11.763Z,27.43
2019-01-31T12:03:40.907Z,29.03
2019-01-31T12:06:09.431Z,30.33
2019-01-31T12:08:37.977Z,32.40
2019-01-31T12:11:06.562Z,33.67
2019-01-31T12:13:35.043Z,32.67
2019-01-31T12:16:03.515Z,33.97
2019-01-31T12:18:32.256Z,34.10
2019-01-31T12:21:00.658Z,32.87
2019-01-31T12:23:29.067Z,33.50
2019-01-31T12:25:57.694Z,33.23
2019-01-31T12:28:26.176Z,34.10
2019-01-31T12:30:54.713Z,35.13
2019-01-31T12:33:23.265Z,32.87
2019-01-31T12:35:51.652Z,32.17
2019-01-31T12:38:22.893Z,32.87
2019-01-31T12:40:52.120Z,34.17
2019-01-31T12:43:20.587Z,32.17
2019-01-31T12:45:49.098Z,31.77
2019-01-31T12:48:17.703Z,29.70
2019-01-31T12:50:46.236Z,29.30
2019-01-31T12:53:14.910Z,29.50
2019-01-31T12:55:43.411Z,28.43
2019-01-31T12:58:11.915Z,28.93
2019-01-31T13:00:41.071Z,29.30
2019-01-31T13:03:09.684Z,29.47
2019-01-31T13:05:38.174Z,30.43
2019-01-31T13:08:06.851Z,28.97
2019-01-31T13:10:35.538Z,29.93
2019-01-31T13:13:04.072Z,29.33
2019-01-31T13:15:32.597Z,29.73
2019-01-31T13:18:01.249Z,29.93
2019-01-31T13:20:29.723Z,30.87
2019-01-31T13:22:58.248Z,30.23
2019-01-31T13:25:27.398Z,30.07
2019-01-31T13:27:56.291Z,30.03
2019-01-31T13:30:25.698Z,28.83
2019-01-31T13:32:54.956Z,31.27
2019-01-31T13:35:24.298Z,29.90
2019-01-31T13:37:52.877Z,30.13
2019-01-31T13:40:22.197Z,28.73
2019-01-31T13:42:51.234Z,29.20
2019-01-31T13:45:20.999Z,29.17
2019-01-31T13:47:49.515Z,28.60
2019-01-31T13:50:18.133Z,29.03
2019-01-31T13:52:46.681Z,27.73
2019-01-31T13:55:22.308Z,29.23
2019-01-31T13:57:50.802Z,28.00
2019-01-31T14:00:19.322Z,28.03
2019-01-31T14:02:48.177Z,29.03
2019-01-31T14:05:16.812Z,28.53
2019-01-31T14:07:45.299Z,26.67
2019-01-31T14:10:15.479Z,26.43
2019-01-31T14:12:44.024Z,24.67
2019-01-31T14:15:12.868Z,25.23
2019-01-31T14:17:41.405Z,23.00
2019-01-31T14:20:11.488Z,24.73
2019-01-31T14:22:42.954Z,24.87
2019-01-31T14:25:10.435Z,24.53
2019-01-31T14:27:38.981Z,23.90
2019-01-31T14:30:10.306Z,24.17
2019-01-31T14:32:39.127Z,23.30
2019-01-31T14:35:08.271Z,23.63
2019-01-31T14:38:19.048Z,21.57
2019-01-31T15:44:13.842Z,24.07
2019-01-31T15:46:45.113Z,22.87
2019-01-31T15:49:14.108Z,23.17
2019-01-31T17:48:38.562Z,28.33
2019-01-31T17:51:21.489Z,25.27
2019-01-31T17:54:01.885Z,25.60
2019-01-31T17:56:31.047Z,26.50
2019-01-31T17:59:03.285Z,28.37
2019-01-31T18:02:08.686Z,28.63
2019-01-31T18:07:35.888Z,25.30
2019-01-31T18:10:12.088Z,21.80
2019-01-31T18:12:57.388Z,24.40
2019-01-31T18:15:53.785Z,25.40
2019-01-31T18:18:23.146Z,24.87
2019-01-31T18:23:59.708Z,24.77
2019-01-31T18:42:09.080Z,22.10
2019-01-31T18:44:43.698Z,23.93
2019-01-31T18:47:21.544Z,22.97
2019-01-31T18:50:24.092Z,23.07
2019-01-31T19:05:24.702Z,22.57
2019-01-31T19:08:28.611Z,24.00
2019-01-31T19:11:10.725Z,24.33
2019-01-31T19:13:44.204Z,22.87
2019-01-31T19:16:32.458Z,22.83
2019-01-31T19:37:10.097Z,24.10
2019-01-31T20:02:16.173Z,26.30
2019-01-31T20:04:46.720Z,26.60
2019-01-31T20:07:16.423Z,25.50
2019-01-31T20:10:00.378Z,24.57
2019-01-31T20:15:45.515Z,25.37
2019-01-31T20:18:23.360Z,22.83
2019-01-31T20:21:28.700Z,24.20
2019-01-31T20:24:02.023Z,22.17
2019-01-31T20:26:40.579Z,22.40
2019-01-31T20:29:13.832Z,24.30
2019-01-31T20:31:48.444Z,22.93
2019-01-31T20:34:17.211Z,23.07
2019-01-31T20:36:48.836Z,24.07
2019-01-31T20:39:17.653Z,21.67
2019-01-31T20:41:54.384Z,23.30
2019-01-31T20:44:22.519Z,23.03
2019-01-31T20:46:53.751Z,21.87
2019-01-31T20:49:22.516Z,22.60
2019-01-31T20:51:53.151Z,23.80
2019-01-31T20:54:21.509Z,23.63
2019-01-31T20:56:52.699Z,22.40
2019-01-31T20:59:21.432Z,24.00
2019-01-31T21:01:50.069Z,22.87
2019-01-31T21:04:19.028Z,26.03
2019-01-31T21:06:49.759Z,26.33
2019-01-31T21:09:21.894Z,28.37
2019-01-31T21:12:16.209Z,30.40
2019-01-31T21:14:46.768Z,29.50
2019-01-31T21:17:17.062Z,30.33
2019-01-31T21:19:50.196Z,28.53
2019-01-31T21:22:20.982Z,30.27
2019-01-31T21:25:05.847Z,29.77
2019-01-31T21:27:28.263Z,30.40
2019-01-31T21:30:00.533Z,30.77
2019-01-31T21:32:35.909Z,30.37
2019-01-31T21:35:05.988Z,30.27
2019-01-31T21:37:35.130Z,32.63
2019-01-31T21:40:07.609Z,33.20
2019-01-31T21:42:42.286Z,32.27
2019-01-31T21:46:04.748Z,33.97
2019-01-31T21:48:33.615Z,32.17
2019-01-31T21:51:08.737Z,34.23
2019-01-31T21:53:37.407Z,35.40
2019-01-31T21:56:05.934Z,35.23
2019-01-31T21:58:36.424Z,35.23
2019-01-31T22:01:05.425Z,33.50
2019-01-31T22:03:37.032Z,35.87
2019-01-31T22:06:22.317Z,36.13
2019-01-31T22:08:45.951Z,35.13
2019-01-31T22:11:14.939Z,34.20
2019-01-31T22:13:50.573Z,33.47
2019-01-31T22:16:20.731Z,33.17
2019-01-31T22:18:49.534Z,34.37
2019-01-31T22:21:19.650Z,34.73
2019-01-31T22:23:48.641Z,35.13
2019-01-31T22:26:37.366Z,35.20
2019-01-31T22:29:08.253Z,34.23
2019-01-31T22:31:38.986Z,35.67
2019-01-31T22:34:10.999Z,33.50
2019-01-31T22:36:40.313Z,33.73
2019-01-31T22:39:09.297Z,33.80
2019-01-31T22:45:48.340Z,33.37
2019-01-31T22:47:52.639Z,32.43
2019-01-31T22:50:29.378Z,31.77
2019-01-31T22:53:01.698Z,33.33
2019-01-31T22:55:31.876Z,32.00
2019-01-31T22:58:02.142Z,30.97
2019-01-31T23:00:55.193Z,33.77
2019-01-31T23:03:24.207Z,31.43
2019-01-31T23:05:53.529Z,33.17
2019-01-31T23:08:22.506Z,30.33
2019-01-31T23:10:51.538Z,33.77
2019-01-31T23:13:20.660Z,32.87
2019-01-31T23:15:52.162Z,32.00
2019-01-31T23:18:21.776Z,32.17
2019-01-31T23:21:09.761Z,29.97
2019-01-31T23:23:40.815Z,31.87
2019-01-31T23:26:18.474Z,31.27
2019-01-31T23:29:03.499Z,31.80
2019-01-31T23:31:32.940Z,31.27
2019-01-31T23:34:02.997Z,30.83
2019-01-31T23:36:52.714Z,29.83
2019-01-31T23:39:21.871Z,29.10
2019-01-31T23:41:54.772Z,31.47
2019-01-31T23:44:25.270Z,30.33
2019-01-31T23:46:54.349Z,29.50
2019-01-31T23:49:23.532Z,30.47
2019-01-31T23:51:52.627Z,28.23
2019-01-31T23:54:21.648Z,28.83
2019-01-31T23:56:50.980Z,29.90
2019-01-31T23:59:21.696Z,29.10
